sensor_id;sensor_type;location;lat;lon;timestamp;temperature;humidity
3198;DHT22;1611;49.394;11.136;2022-07-10T00:02:02;15.60;68.70
3198;DHT22;1611;49.394;11.136;2022-07-10T00:04:29;15.70;69.20
3198;DHT22;1611;49.394;11.136;2022-07-10T00:06:56;15.60;69.00
3198;DHT22;1611;49.394;11.136;2022-07-10T00:09:23;15.60;68.90
3198;DHT22;1611;49.394;11.136;2022-07-10T00:11:51;15.60;68.70
3198;DHT22;1611;49.394;11.136;2022-07-10T00:14:18;15.60;68.80
3198;DHT22;1611;49.394;11.136;2022-07-10T00:16:45;15.50;68.90
3198;DHT22;1611;49.394;11.136;2022-07-10T00:19:12;15.40;68.80
3198;DHT22;1611;49.394;11.136;2022-07-10T00:21:39;15.40;68.90
3198;DHT22;1611;49.394;11.136;2022-07-10T00:24:06;15.30;69.30
3198;DHT22;1611;49.394;11.136;2022-07-10T00:26:32;15.30;69.70
3198;DHT22;1611;49.394;11.136;2022-07-10T00:29:00;15.30;69.60
3198;DHT22;1611;49.394;11.136;2022-07-10T00:31:27;15.30;69.80
3198;DHT22;1611;49.394;11.136;2022-07-10T00:33:54;15.30;69.80
3198;DHT22;1611;49.394;11.136;2022-07-10T00:36:20;15.20;69.80
3198;DHT22;1611;49.394;11.136;2022-07-10T00:38:47;15.20;70.00
3198;DHT22;1611;49.394;11.136;2022-07-10T00:41:14;15.20;69.70
3198;DHT22;1611;49.394;11.136;2022-07-10T00:43:54;15.20;69.80
3198;DHT22;1611;49.394;11.136;2022-07-10T00:46:22;15.20;69.80
3198;DHT22;1611;49.394;11.136;2022-07-10T00:48:49;15.10;69.90
3198;DHT22;1611;49.394;11.136;2022-07-10T00:51:18;15.00;70.00
3198;DHT22;1611;49.394;11.136;2022-07-10T00:53:45;15.00;70.40
3198;DHT22;1611;49.394;11.136;2022-07-10T00:56:15;15.00;70.70
3198;DHT22;1611;49.394;11.136;2022-07-10T00:58:43;15.00;70.30
3198;DHT22;1611;49.394;11.136;2022-07-10T01:01:10;15.00;70.30
3198;DHT22;1611;49.394;11.136;2022-07-10T01:03:38;15.00;70.20
3198;DHT22;1611;49.394;11.136;2022-07-10T01:06:05;15.00;70.30
3198;DHT22;1611;49.394;11.136;2022-07-10T01:08:33;15.00;70.00
3198;DHT22;1611;49.394;11.136;2022-07-10T01:11:00;15.00;70.10
3198;DHT22;1611;49.394;11.136;2022-07-10T01:13:27;15.00;70.20
3198;DHT22;1611;49.394;11.136;2022-07-10T01:15:54;15.00;70.10
3198;DHT22;1611;49.394;11.136;2022-07-10T01:18:20;15.00;70.00
3198;DHT22;1611;49.394;11.136;2022-07-10T01:20:52;15.00;70.30
3198;DHT22;1611;49.394;11.136;2022-07-10T01:23:19;15.00;70.60
3198;DHT22;1611;49.394;11.136;2022-07-10T01:25:47;14.90;70.50
3198;DHT22;1611;49.394;11.136;2022-07-10T01:28:14;14.90;70.70
3198;DHT22;1611;49.394;11.136;2022-07-10T01:30:41;15.00;70.50
3198;DHT22;1611;49.394;11.136;2022-07-10T01:33:08;14.90;70.30
3198;DHT22;1611;49.394;11.136;2022-07-10T01:35:34;14.90;70.40
3198;DHT22;1611;49.394;11.136;2022-07-10T01:38:02;15.00;70.70
3198;DHT22;1611;49.394;11.136;2022-07-10T01:40:29;15.00;71.00
3198;DHT22;1611;49.394;11.136;2022-07-10T01:42:56;15.00;70.70
3198;DHT22;1611;49.394;11.136;2022-07-10T01:45:24;15.00;71.00
3198;DHT22;1611;49.394;11.136;2022-07-10T01:47:51;15.10;71.10
3198;DHT22;1611;49.394;11.136;2022-07-10T01:50:17;15.10;70.90
3198;DHT22;1611;49.394;11.136;2022-07-10T01:52:44;15.10;70.70
3198;DHT22;1611;49.394;11.136;2022-07-10T01:55:12;15.20;70.60
3198;DHT22;1611;49.394;11.136;2022-07-10T01:57:40;15.20;70.40
3198;DHT22;1611;49.394;11.136;2022-07-10T02:00:08;15.30;70.50
3198;DHT22;1611;49.394;11.136;2022-07-10T02:02:35;15.30;70.50
3198;DHT22;1611;49.394;11.136;2022-07-10T02:05:01;15.30;69.90
3198;DHT22;1611;49.394;11.136;2022-07-10T02:07:27;15.40;69.70
3198;DHT22;1611;49.394;11.136;2022-07-10T02:09:54;15.40;69.40
3198;DHT22;1611;49.394;11.136;2022-07-10T02:12:22;15.50;69.30
3198;DHT22;1611;49.394;11.136;2022-07-10T02:14:49;15.50;68.80
3198;DHT22;1611;49.394;11.136;2022-07-10T02:17:15;15.60;68.10
3198;DHT22;1611;49.394;11.136;2022-07-10T02:19:42;15.70;67.90
3198;DHT22;1611;49.394;11.136;2022-07-10T02:22:09;15.70;67.80
3198;DHT22;1611;49.394;11.136;2022-07-10T02:24:36;15.70;67.00
3198;DHT22;1611;49.394;11.136;2022-07-10T02:27:03;15.70;66.90
3198;DHT22;1611;49.394;11.136;2022-07-10T02:29:31;15.70;66.80
3198;DHT22;1611;49.394;11.136;2022-07-10T02:31:58;15.70;66.90
3198;DHT22;1611;49.394;11.136;2022-07-10T02:34:25;15.70;67.10
3198;DHT22;1611;49.394;11.136;2022-07-10T02:36:52;15.70;66.90
3198;DHT22;1611;49.394;11.136;2022-07-10T02:39:19;15.70;67.00
3198;DHT22;1611;49.394;11.136;2022-07-10T02:41:47;15.70;66.80
3198;DHT22;1611;49.394;11.136;2022-07-10T02:44:14;15.70;66.50
3198;DHT22;1611;49.394;11.136;2022-07-10T02:46:43;15.70;66.50
3198;DHT22;1611;49.394;11.136;2022-07-10T02:49:09;15.70;66.60
3198;DHT22;1611;49.394;11.136;2022-07-10T02:51:36;15.70;66.40
3198;DHT22;1611;49.394;11.136;2022-07-10T02:54:03;15.80;66.10
3198;DHT22;1611;49.394;11.136;2022-07-10T02:56:29;15.80;65.20
3198;DHT22;1611;49.394;11.136;2022-07-10T02:58:56;15.90;64.80
3198;DHT22;1611;49.394;11.136;2022-07-10T03:01:23;15.90;64.70
3198;DHT22;1611;49.394;11.136;2022-07-10T03:03:51;15.90;63.40
3198;DHT22;1611;49.394;11.136;2022-07-10T03:06:18;15.80;63.00
3198;DHT22;1611;49.394;11.136;2022-07-10T03:08:45;15.80;62.20
3198;DHT22;1611;49.394;11.136;2022-07-10T03:11:11;15.80;61.80
3198;DHT22;1611;49.394;11.136;2022-07-10T03:13:38;15.80;61.70
3198;DHT22;1611;49.394;11.136;2022-07-10T03:16:05;15.80;60.10
3198;DHT22;1611;49.394;11.136;2022-07-10T03:18:32;15.80;59.40
3198;DHT22;1611;49.394;11.136;2022-07-10T03:21:00;15.80;59.20
3198;DHT22;1611;49.394;11.136;2022-07-10T03:23:27;15.80;59.30
3198;DHT22;1611;49.394;11.136;2022-07-10T03:25:53;15.80;58.70
3198;DHT22;1611;49.394;11.136;2022-07-10T03:28:20;15.70;58.40
3198;DHT22;1611;49.394;11.136;2022-07-10T03:30:47;15.70;57.60
3198;DHT22;1611;49.394;11.136;2022-07-10T03:33:14;15.80;57.70
3198;DHT22;1611;49.394;11.136;2022-07-10T03:35:40;15.70;56.10
3198;DHT22;1611;49.394;11.136;2022-07-10T03:38:08;15.70;56.30
3198;DHT22;1611;49.394;11.136;2022-07-10T03:40:35;15.70;55.70
3198;DHT22;1611;49.394;11.136;2022-07-10T03:43:02;15.70;56.00
3198;DHT22;1611;49.394;11.136;2022-07-10T03:45:28;15.60;55.20
3198;DHT22;1611;49.394;11.136;2022-07-10T03:47:55;15.60;54.80
3198;DHT22;1611;49.394;11.136;2022-07-10T03:50:22;15.60;53.90
3198;DHT22;1611;49.394;11.136;2022-07-10T03:52:49;15.60;53.60
3198;DHT22;1611;49.394;11.136;2022-07-10T03:55:17;15.50;55.00
3198;DHT22;1611;49.394;11.136;2022-07-10T03:57:44;15.50;53.30
3198;DHT22;1611;49.394;11.136;2022-07-10T04:00:23;15.50;53.30
3198;DHT22;1611;49.394;11.136;2022-07-10T04:02:57;15.50;52.90
3198;DHT22;1611;49.394;11.136;2022-07-10T04:05:24;15.50;52.30
3198;DHT22;1611;49.394;11.136;2022-07-10T04:07:52;15.60;52.50
3198;DHT22;1611;49.394;11.136;2022-07-10T04:10:20;15.50;52.10
3198;DHT22;1611;49.394;11.136;2022-07-10T04:12:47;15.50;51.80
3198;DHT22;1611;49.394;11.136;2022-07-10T04:15:14;15.60;52.20
3198;DHT22;1611;49.394;11.136;2022-07-10T04:17:41;15.60;51.90
3198;DHT22;1611;49.394;11.136;2022-07-10T04:20:08;15.60;51.30
3198;DHT22;1611;49.394;11.136;2022-07-10T04:22:35;15.60;51.50
3198;DHT22;1611;49.394;11.136;2022-07-10T04:25:03;15.60;51.20
3198;DHT22;1611;49.394;11.136;2022-07-10T04:27:32;15.60;51.60
3198;DHT22;1611;49.394;11.136;2022-07-10T04:29:59;15.70;52.60
3198;DHT22;1611;49.394;11.136;2022-07-10T04:32:25;15.70;52.70
3198;DHT22;1611;49.394;11.136;2022-07-10T04:34:53;15.70;53.10
3198;DHT22;1611;49.394;11.136;2022-07-10T04:37:19;15.90;53.40
3198;DHT22;1611;49.394;11.136;2022-07-10T04:39:46;15.90;53.40
3198;DHT22;1611;49.394;11.136;2022-07-10T04:42:13;15.90;53.10
3198;DHT22;1611;49.394;11.136;2022-07-10T04:44:42;16.00;53.40
3198;DHT22;1611;49.394;11.136;2022-07-10T04:47:09;16.00;52.80
3198;DHT22;1611;49.394;11.136;2022-07-10T04:49:36;16.00;52.60
3198;DHT22;1611;49.394;11.136;2022-07-10T04:52:04;16.00;52.70
3198;DHT22;1611;49.394;11.136;2022-07-10T04:54:30;16.00;52.00
3198;DHT22;1611;49.394;11.136;2022-07-10T04:56:57;15.90;51.70
3198;DHT22;1611;49.394;11.136;2022-07-10T04:59:25;15.80;51.20
3198;DHT22;1611;49.394;11.136;2022-07-10T05:01:53;15.80;50.70
3198;DHT22;1611;49.394;11.136;2022-07-10T05:04:20;15.80;51.10
3198;DHT22;1611;49.394;11.136;2022-07-10T05:06:47;15.80;50.30
3198;DHT22;1611;49.394;11.136;2022-07-10T05:09:14;15.90;50.00
3198;DHT22;1611;49.394;11.136;2022-07-10T05:11:40;15.70;49.20
3198;DHT22;1611;49.394;11.136;2022-07-10T05:14:07;15.70;49.50
3198;DHT22;1611;49.394;11.136;2022-07-10T05:16:34;15.70;49.80
3198;DHT22;1611;49.394;11.136;2022-07-10T05:19:02;15.80;48.10
3198;DHT22;1611;49.394;11.136;2022-07-10T05:21:29;15.70;47.80
3198;DHT22;1611;49.394;11.136;2022-07-10T05:23:55;15.80;47.60
3198;DHT22;1611;49.394;11.136;2022-07-10T05:26:22;15.60;47.20
3198;DHT22;1611;49.394;11.136;2022-07-10T05:28:49;15.70;48.00
3198;DHT22;1611;49.394;11.136;2022-07-10T05:31:16;15.80;47.70
3198;DHT22;1611;49.394;11.136;2022-07-10T05:33:42;15.80;47.70
3198;DHT22;1611;49.394;11.136;2022-07-10T05:36:11;15.90;47.00
3198;DHT22;1611;49.394;11.136;2022-07-10T05:38:37;15.90;47.00
3198;DHT22;1611;49.394;11.136;2022-07-10T05:41:04;15.90;46.30
3198;DHT22;1611;49.394;11.136;2022-07-10T05:43:31;15.90;46.50
3198;DHT22;1611;49.394;11.136;2022-07-10T05:45:58;15.90;46.70
3198;DHT22;1611;49.394;11.136;2022-07-10T05:48:25;15.90;46.60
3198;DHT22;1611;49.394;11.136;2022-07-10T05:50:52;16.00;46.60
3198;DHT22;1611;49.394;11.136;2022-07-10T05:53:20;16.00;47.00
3198;DHT22;1611;49.394;11.136;2022-07-10T05:55:47;16.10;46.20
3198;DHT22;1611;49.394;11.136;2022-07-10T05:58:14;16.20;45.30
3198;DHT22;1611;49.394;11.136;2022-07-10T06:00:41;16.30;45.30
3198;DHT22;1611;49.394;11.136;2022-07-10T06:03:09;16.50;45.40
3198;DHT22;1611;49.394;11.136;2022-07-10T06:05:36;16.40;44.70
3198;DHT22;1611;49.394;11.136;2022-07-10T06:08:03;16.50;44.60
3198;DHT22;1611;49.394;11.136;2022-07-10T06:10:31;16.60;44.60
3198;DHT22;1611;49.394;11.136;2022-07-10T06:12:58;16.60;41.90
3198;DHT22;1611;49.394;11.136;2022-07-10T06:15:24;16.60;42.10
3198;DHT22;1611;49.394;11.136;2022-07-10T06:17:51;16.50;41.90
3198;DHT22;1611;49.394;11.136;2022-07-10T06:20:18;16.60;41.70
3198;DHT22;1611;49.394;11.136;2022-07-10T06:22:45;16.60;40.90
3198;DHT22;1611;49.394;11.136;2022-07-10T06:25:11;16.60;41.40
3198;DHT22;1611;49.394;11.136;2022-07-10T06:27:39;16.60;41.20
3198;DHT22;1611;49.394;11.136;2022-07-10T06:30:07;16.60;39.90
3198;DHT22;1611;49.394;11.136;2022-07-10T06:32:34;16.50;39.50
3198;DHT22;1611;49.394;11.136;2022-07-10T06:35:00;16.40;40.30
3198;DHT22;1611;49.394;11.136;2022-07-10T06:37:28;16.40;40.80
3198;DHT22;1611;49.394;11.136;2022-07-10T06:39:54;16.40;39.60
3198;DHT22;1611;49.394;11.136;2022-07-10T06:42:21;16.30;39.70
3198;DHT22;1611;49.394;11.136;2022-07-10T06:44:49;16.20;39.80
3198;DHT22;1611;49.394;11.136;2022-07-10T06:47:17;16.30;41.00
3198;DHT22;1611;49.394;11.136;2022-07-10T06:50:05;16.50;39.30
3198;DHT22;1611;49.394;11.136;2022-07-10T06:52:33;16.60;38.80
3198;DHT22;1611;49.394;11.136;2022-07-10T06:55:00;16.60;38.70
3198;DHT22;1611;49.394;11.136;2022-07-10T06:57:27;16.70;39.70
3198;DHT22;1611;49.394;11.136;2022-07-10T06:59:55;16.80;38.70
3198;DHT22;1611;49.394;11.136;2022-07-10T07:02:22;16.90;38.80
3198;DHT22;1611;49.394;11.136;2022-07-10T07:04:49;16.80;38.60
3198;DHT22;1611;49.394;11.136;2022-07-10T07:07:16;16.60;38.80
3198;DHT22;1611;49.394;11.136;2022-07-10T07:09:42;16.60;39.80
3198;DHT22;1611;49.394;11.136;2022-07-10T07:12:10;16.80;39.10
3198;DHT22;1611;49.394;11.136;2022-07-10T07:14:37;17.20;38.80
3198;DHT22;1611;49.394;11.136;2022-07-10T07:17:05;17.60;37.20
3198;DHT22;1611;49.394;11.136;2022-07-10T07:19:34;17.60;36.30
3198;DHT22;1611;49.394;11.136;2022-07-10T07:22:15;17.60;35.90
3198;DHT22;1611;49.394;11.136;2022-07-10T07:24:58;17.50;36.30
3198;DHT22;1611;49.394;11.136;2022-07-10T07:27:26;17.40;36.90
3198;DHT22;1611;49.394;11.136;2022-07-10T07:29:52;17.30;36.90
3198;DHT22;1611;49.394;11.136;2022-07-10T07:32:20;16.90;37.60
3198;DHT22;1611;49.394;11.136;2022-07-10T07:34:47;16.70;38.60
3198;DHT22;1611;49.394;11.136;2022-07-10T07:37:14;16.70;39.80
3198;DHT22;1611;49.394;11.136;2022-07-10T07:39:41;16.60;38.80
3198;DHT22;1611;49.394;11.136;2022-07-10T07:42:07;16.70;38.80
3198;DHT22;1611;49.394;11.136;2022-07-10T07:44:34;16.60;34.90
3198;DHT22;1611;49.394;11.136;2022-07-10T07:47:01;16.90;33.60
3198;DHT22;1611;49.394;11.136;2022-07-10T07:49:29;17.10;32.80
3198;DHT22;1611;49.394;11.136;2022-07-10T07:51:56;17.40;32.80
3198;DHT22;1611;49.394;11.136;2022-07-10T07:54:22;17.70;31.30
3198;DHT22;1611;49.394;11.136;2022-07-10T07:56:49;17.40;31.30
3198;DHT22;1611;49.394;11.136;2022-07-10T07:59:16;17.40;31.00
3198;DHT22;1611;49.394;11.136;2022-07-10T08:01:43;17.40;32.00
3198;DHT22;1611;49.394;11.136;2022-07-10T08:04:10;17.20;32.80
3198;DHT22;1611;49.394;11.136;2022-07-10T08:06:38;17.00;31.20
3198;DHT22;1611;49.394;11.136;2022-07-10T08:09:05;16.80;30.80
3198;DHT22;1611;49.394;11.136;2022-07-10T08:11:31;16.80;31.10
3198;DHT22;1611;49.394;11.136;2022-07-10T08:13:58;16.80;30.60
3198;DHT22;1611;49.394;11.136;2022-07-10T08:16:25;17.20;32.10
3198;DHT22;1611;49.394;11.136;2022-07-10T08:18:52;17.70;29.20
3198;DHT22;1611;49.394;11.136;2022-07-10T08:21:19;18.10;28.80
3198;DHT22;1611;49.394;11.136;2022-07-10T08:23:47;18.60;28.50
3198;DHT22;1611;49.394;11.136;2022-07-10T08:26:13;18.70;26.90
3198;DHT22;1611;49.394;11.136;2022-07-10T08:28:40;18.60;26.70
3198;DHT22;1611;49.394;11.136;2022-07-10T08:31:07;18.60;26.00
3198;DHT22;1611;49.394;11.136;2022-07-10T08:33:33;18.40;26.50
3198;DHT22;1611;49.394;11.136;2022-07-10T08:36:01;18.60;26.90
3198;DHT22;1611;49.394;11.136;2022-07-10T08:38:27;18.80;26.80
3198;DHT22;1611;49.394;11.136;2022-07-10T08:40:56;18.90;24.90
3198;DHT22;1611;49.394;11.136;2022-07-10T08:43:24;18.90;24.30
3198;DHT22;1611;49.394;11.136;2022-07-10T08:45:51;19.00;26.30
3198;DHT22;1611;49.394;11.136;2022-07-10T08:48:22;19.10;25.00
3198;DHT22;1611;49.394;11.136;2022-07-10T08:50:52;19.00;25.20
3198;DHT22;1611;49.394;11.136;2022-07-10T08:53:24;18.70;25.20
3198;DHT22;1611;49.394;11.136;2022-07-10T08:55:56;18.60;25.50
3198;DHT22;1611;49.394;11.136;2022-07-10T08:58:24;18.60;26.00
3198;DHT22;1611;49.394;11.136;2022-07-10T09:00:52;18.40;26.50
3198;DHT22;1611;49.394;11.136;2022-07-10T09:03:19;18.40;26.70
3198;DHT22;1611;49.394;11.136;2022-07-10T09:05:46;18.30;26.40
3198;DHT22;1611;49.394;11.136;2022-07-10T09:08:21;18.30;26.70
3198;DHT22;1611;49.394;11.136;2022-07-10T09:10:48;18.40;27.70
3198;DHT22;1611;49.394;11.136;2022-07-10T09:13:17;18.70;27.90
3198;DHT22;1611;49.394;11.136;2022-07-10T09:15:48;19.00;25.30
3198;DHT22;1611;49.394;11.136;2022-07-10T09:18:19;19.10;25.60
3198;DHT22;1611;49.394;11.136;2022-07-10T09:20:46;19.00;24.90
3198;DHT22;1611;49.394;11.136;2022-07-10T09:23:16;18.80;24.70
3198;DHT22;1611;49.394;11.136;2022-07-10T09:25:44;18.60;25.20
3198;DHT22;1611;49.394;11.136;2022-07-10T09:28:13;18.50;25.60
3198;DHT22;1611;49.394;11.136;2022-07-10T09:30:41;18.50;25.60
3198;DHT22;1611;49.394;11.136;2022-07-10T09:33:18;18.60;26.60
3198;DHT22;1611;49.394;11.136;2022-07-10T09:35:58;19.00;26.40
3198;DHT22;1611;49.394;11.136;2022-07-10T09:38:49;19.30;25.30
3198;DHT22;1611;49.394;11.136;2022-07-10T09:41:18;19.60;23.80
3198;DHT22;1611;49.394;11.136;2022-07-10T09:43:46;19.60;23.20
3198;DHT22;1611;49.394;11.136;2022-07-10T09:46:15;19.40;22.80
3198;DHT22;1611;49.394;11.136;2022-07-10T09:48:42;19.10;23.60
3198;DHT22;1611;49.394;11.136;2022-07-10T09:51:09;19.10;25.00
3198;DHT22;1611;49.394;11.136;2022-07-10T09:53:38;19.10;25.30
3198;DHT22;1611;49.394;11.136;2022-07-10T09:56:07;19.10;24.00
3198;DHT22;1611;49.394;11.136;2022-07-10T09:58:35;18.90;24.90
3198;DHT22;1611;49.394;11.136;2022-07-10T10:01:02;18.90;24.60
3198;DHT22;1611;49.394;11.136;2022-07-10T10:03:33;18.90;24.10
3198;DHT22;1611;49.394;11.136;2022-07-10T10:06:03;19.00;23.70
3198;DHT22;1611;49.394;11.136;2022-07-10T10:08:34;19.10;23.70
3198;DHT22;1611;49.394;11.136;2022-07-10T10:11:03;19.40;23.10
3198;DHT22;1611;49.394;11.136;2022-07-10T10:13:30;19.40;22.80
3198;DHT22;1611;49.394;11.136;2022-07-10T10:16:02;19.50;23.30
3198;DHT22;1611;49.394;11.136;2022-07-10T10:18:29;19.40;22.20
3198;DHT22;1611;49.394;11.136;2022-07-10T10:20:57;19.20;22.70
3198;DHT22;1611;49.394;11.136;2022-07-10T10:23:24;19.10;24.10
3198;DHT22;1611;49.394;11.136;2022-07-10T10:25:54;19.10;25.20
3198;DHT22;1611;49.394;11.136;2022-07-10T10:28:23;19.10;25.00
3198;DHT22;1611;49.394;11.136;2022-07-10T10:30:51;19.10;24.60
3198;DHT22;1611;49.394;11.136;2022-07-10T10:33:44;19.20;25.40
3198;DHT22;1611;49.394;11.136;2022-07-10T10:36:15;19.20;25.30
3198;DHT22;1611;49.394;11.136;2022-07-10T10:39:04;18.90;25.60
3198;DHT22;1611;49.394;11.136;2022-07-10T10:41:40;18.80;25.90
3198;DHT22;1611;49.394;11.136;2022-07-10T10:44:23;18.70;26.00
3198;DHT22;1611;49.394;11.136;2022-07-10T10:49:50;18.70;26.60
3198;DHT22;1611;49.394;11.136;2022-07-10T10:52:19;18.70;27.40
3198;DHT22;1611;49.394;11.136;2022-07-10T10:55:08;19.00;26.70
3198;DHT22;1611;49.394;11.136;2022-07-10T10:57:38;19.20;26.60
3198;DHT22;1611;49.394;11.136;2022-07-10T11:00:12;19.30;26.50
3198;DHT22;1611;49.394;11.136;2022-07-10T11:02:40;19.30;26.10
3198;DHT22;1611;49.394;11.136;2022-07-10T11:05:38;19.50;25.50
3198;DHT22;1611;49.394;11.136;2022-07-10T11:08:08;19.70;26.20
3198;DHT22;1611;49.394;11.136;2022-07-10T11:10:36;20.00;24.90
3198;DHT22;1611;49.394;11.136;2022-07-10T11:13:04;19.80;24.90
3198;DHT22;1611;49.394;11.136;2022-07-10T11:15:32;19.80;24.00
3198;DHT22;1611;49.394;11.136;2022-07-10T11:17:59;19.80;25.10
3198;DHT22;1611;49.394;11.136;2022-07-10T11:20:31;20.00;25.50
3198;DHT22;1611;49.394;11.136;2022-07-10T11:23:08;20.40;25.50
3198;DHT22;1611;49.394;11.136;2022-07-10T11:25:45;20.40;24.40
3198;DHT22;1611;49.394;11.136;2022-07-10T11:28:22;20.30;25.50
3198;DHT22;1611;49.394;11.136;2022-07-10T11:30:53;20.10;23.60
3198;DHT22;1611;49.394;11.136;2022-07-10T11:33:21;19.70;25.40
3198;DHT22;1611;49.394;11.136;2022-07-10T11:35:50;19.50;25.10
3198;DHT22;1611;49.394;11.136;2022-07-10T11:38:22;19.20;26.10
3198;DHT22;1611;49.394;11.136;2022-07-10T11:40:50;19.00;27.60
3198;DHT22;1611;49.394;11.136;2022-07-10T11:43:18;19.00;28.00
3198;DHT22;1611;49.394;11.136;2022-07-10T11:45:48;18.90;27.10
3198;DHT22;1611;49.394;11.136;2022-07-10T11:48:17;18.80;27.70
3198;DHT22;1611;49.394;11.136;2022-07-10T11:50:44;18.90;28.30
3198;DHT22;1611;49.394;11.136;2022-07-10T11:53:11;18.60;28.40
3198;DHT22;1611;49.394;11.136;2022-07-10T11:55:40;18.60;28.70
3198;DHT22;1611;49.394;11.136;2022-07-10T11:58:14;18.50;28.50
3198;DHT22;1611;49.394;11.136;2022-07-10T12:00:41;18.60;28.80
3198;DHT22;1611;49.394;11.136;2022-07-10T12:03:20;18.50;27.90
3198;DHT22;1611;49.394;11.136;2022-07-10T12:05:48;18.70;28.50
3198;DHT22;1611;49.394;11.136;2022-07-10T12:08:16;18.90;28.00
3198;DHT22;1611;49.394;11.136;2022-07-10T12:10:45;19.20;27.20
3198;DHT22;1611;49.394;11.136;2022-07-10T12:13:13;19.40;28.30
3198;DHT22;1611;49.394;11.136;2022-07-10T12:15:42;19.80;25.90
3198;DHT22;1611;49.394;11.136;2022-07-10T12:18:15;20.20;24.70
3198;DHT22;1611;49.394;11.136;2022-07-10T12:20:43;20.80;22.60
3198;DHT22;1611;49.394;11.136;2022-07-10T12:23:11;21.10;21.00
3198;DHT22;1611;49.394;11.136;2022-07-10T12:25:41;21.00;20.80
3198;DHT22;1611;49.394;11.136;2022-07-10T12:28:10;20.90;22.00
3198;DHT22;1611;49.394;11.136;2022-07-10T12:30:39;21.20;22.30
3198;DHT22;1611;49.394;11.136;2022-07-10T12:33:10;21.20;22.60
3198;DHT22;1611;49.394;11.136;2022-07-10T12:35:51;21.20;21.60
3198;DHT22;1611;49.394;11.136;2022-07-10T12:38:22;21.10;20.80
3198;DHT22;1611;49.394;11.136;2022-07-10T12:40:49;21.00;22.00
3198;DHT22;1611;49.394;11.136;2022-07-10T12:43:27;20.80;21.90
3198;DHT22;1611;49.394;11.136;2022-07-10T12:46:11;20.70;21.70
3198;DHT22;1611;49.394;11.136;2022-07-10T12:48:38;20.50;22.30
3198;DHT22;1611;49.394;11.136;2022-07-10T12:51:22;20.30;22.80
3198;DHT22;1611;49.394;11.136;2022-07-10T12:53:49;20.20;23.80
3198;DHT22;1611;49.394;11.136;2022-07-10T12:56:33;20.00;23.30
3198;DHT22;1611;49.394;11.136;2022-07-10T12:59:03;19.80;24.80
3198;DHT22;1611;49.394;11.136;2022-07-10T13:01:42;19.60;24.70
3198;DHT22;1611;49.394;11.136;2022-07-10T13:04:09;19.40;24.30
3198;DHT22;1611;49.394;11.136;2022-07-10T13:06:37;19.50;24.20
3198;DHT22;1611;49.394;11.136;2022-07-10T13:09:18;19.50;24.00
3198;DHT22;1611;49.394;11.136;2022-07-10T13:11:45;19.80;24.70
3198;DHT22;1611;49.394;11.136;2022-07-10T13:14:14;19.70;23.80
3198;DHT22;1611;49.394;11.136;2022-07-10T13:16:41;19.60;23.60
3198;DHT22;1611;49.394;11.136;2022-07-10T13:19:07;19.70;23.40
3198;DHT22;1611;49.394;11.136;2022-07-10T13:21:34;19.80;24.70
3198;DHT22;1611;49.394;11.136;2022-07-10T13:24:02;20.10;23.40
3198;DHT22;1611;49.394;11.136;2022-07-10T13:26:29;20.10;22.90
3198;DHT22;1611;49.394;11.136;2022-07-10T13:28:56;20.00;22.60
3198;DHT22;1611;49.394;11.136;2022-07-10T13:31:24;20.10;23.00
3198;DHT22;1611;49.394;11.136;2022-07-10T13:33:50;20.20;22.90
3198;DHT22;1611;49.394;11.136;2022-07-10T13:36:17;21.70;22.50
3198;DHT22;1611;49.394;11.136;2022-07-10T13:38:44;23.50;18.10
3198;DHT22;1611;49.394;11.136;2022-07-10T13:41:12;24.00;17.30
3198;DHT22;1611;49.394;11.136;2022-07-10T13:43:39;24.00;17.00
3198;DHT22;1611;49.394;11.136;2022-07-10T13:46:06;23.60;15.70
3198;DHT22;1611;49.394;11.136;2022-07-10T13:48:34;22.70;17.00
3198;DHT22;1611;49.394;11.136;2022-07-10T13:51:01;22.30;17.90
3198;DHT22;1611;49.394;11.136;2022-07-10T13:53:28;21.70;18.10
3198;DHT22;1611;49.394;11.136;2022-07-10T13:55:55;21.40;19.40
3198;DHT22;1611;49.394;11.136;2022-07-10T13:58:22;21.10;19.70
3198;DHT22;1611;49.394;11.136;2022-07-10T14:00:49;20.70;20.90
3198;DHT22;1611;49.394;11.136;2022-07-10T14:03:15;20.50;21.50
3198;DHT22;1611;49.394;11.136;2022-07-10T14:05:43;20.20;22.20
3198;DHT22;1611;49.394;11.136;2022-07-10T14:08:10;19.90;23.00
3198;DHT22;1611;49.394;11.136;2022-07-10T14:10:37;20.00;23.10
3198;DHT22;1611;49.394;11.136;2022-07-10T14:13:04;20.00;22.70
3198;DHT22;1611;49.394;11.136;2022-07-10T14:15:32;20.10;23.20
3198;DHT22;1611;49.394;11.136;2022-07-10T14:17:59;20.00;22.80
3198;DHT22;1611;49.394;11.136;2022-07-10T14:20:25;20.30;23.10
3198;DHT22;1611;49.394;11.136;2022-07-10T14:22:54;21.50;20.70
3198;DHT22;1611;49.394;11.136;2022-07-10T14:25:22;22.00;19.30
3198;DHT22;1611;49.394;11.136;2022-07-10T14:27:51;22.10;19.60
3198;DHT22;1611;49.394;11.136;2022-07-10T14:30:18;22.00;19.50
3198;DHT22;1611;49.394;11.136;2022-07-10T14:32:45;21.60;20.20
3198;DHT22;1611;49.394;11.136;2022-07-10T14:35:11;21.90;20.50
3198;DHT22;1611;49.394;11.136;2022-07-10T14:37:38;22.00;19.80
3198;DHT22;1611;49.394;11.136;2022-07-10T14:40:07;22.00;19.90
3198;DHT22;1611;49.394;11.136;2022-07-10T14:42:34;22.00;20.30
3198;DHT22;1611;49.394;11.136;2022-07-10T14:45:01;21.90;20.40
3198;DHT22;1611;49.394;11.136;2022-07-10T14:47:27;21.90;19.90
3198;DHT22;1611;49.394;11.136;2022-07-10T14:49:55;21.70;20.70
3198;DHT22;1611;49.394;11.136;2022-07-10T14:52:22;21.50;20.70
3198;DHT22;1611;49.394;11.136;2022-07-10T14:54:50;21.60;20.20
3198;DHT22;1611;49.394;11.136;2022-07-10T14:57:19;21.50;20.40
3198;DHT22;1611;49.394;11.136;2022-07-10T14:59:45;21.30;20.00
3198;DHT22;1611;49.394;11.136;2022-07-10T15:02:12;21.10;19.90
3198;DHT22;1611;49.394;11.136;2022-07-10T15:04:39;21.00;20.00
3198;DHT22;1611;49.394;11.136;2022-07-10T15:07:05;20.90;20.90
3198;DHT22;1611;49.394;11.136;2022-07-10T15:09:32;20.60;21.10
3198;DHT22;1611;49.394;11.136;2022-07-10T15:11:59;20.40;22.00
3198;DHT22;1611;49.394;11.136;2022-07-10T15:14:27;20.30;22.20
3198;DHT22;1611;49.394;11.136;2022-07-10T15:16:54;20.20;22.60
3198;DHT22;1611;49.394;11.136;2022-07-10T15:19:21;20.20;22.30
3198;DHT22;1611;49.394;11.136;2022-07-10T15:21:48;20.20;22.50
3198;DHT22;1611;49.394;11.136;2022-07-10T15:24:15;20.20;22.90
3198;DHT22;1611;49.394;11.136;2022-07-10T15:26:42;20.20;22.30
3198;DHT22;1611;49.394;11.136;2022-07-10T15:29:08;20.20;22.80
3198;DHT22;1611;49.394;11.136;2022-07-10T15:31:37;20.30;22.70
3198;DHT22;1611;49.394;11.136;2022-07-10T15:34:07;20.60;22.40
3198;DHT22;1611;49.394;11.136;2022-07-10T15:36:34;20.70;22.30
3198;DHT22;1611;49.394;11.136;2022-07-10T15:39:01;20.80;22.20
3198;DHT22;1611;49.394;11.136;2022-07-10T15:41:28;20.80;22.00
3198;DHT22;1611;49.394;11.136;2022-07-10T15:43:55;20.70;21.70
3198;DHT22;1611;49.394;11.136;2022-07-10T15:46:21;20.50;21.30
3198;DHT22;1611;49.394;11.136;2022-07-10T15:48:49;20.30;22.70
3198;DHT22;1611;49.394;11.136;2022-07-10T15:51:16;20.30;22.50
3198;DHT22;1611;49.394;11.136;2022-07-10T15:53:43;20.40;23.10
3198;DHT22;1611;49.394;11.136;2022-07-10T15:56:10;20.20;23.20